createdAt,value
2022-11-01T00:01:15.499Z,0
2022-11-01T00:02:31.783Z,0
2022-11-01T00:03:48.075Z,0
2022-11-01T00:05:04.366Z,0
2022-11-01T00:06:20.665Z,0
2022-11-01T00:07:36.982Z,0
2022-11-01T00:08:53.258Z,0
2022-11-01T00:10:09.540Z,0
2022-11-01T00:11:25.840Z,0
2022-11-01T00:12:42.157Z,0
2022-11-01T00:13:58.422Z,0
2022-11-01T00:15:13.731Z,0
2022-11-01T00:16:30.036Z,0
2022-11-01T00:17:46.331Z,0
2022-11-01T00:19:02.624Z,0
2022-11-01T00:20:18.924Z,0
2022-11-01T00:21:35.211Z,0
2022-11-01T00:22:51.499Z,0
2022-11-01T00:24:07.791Z,0
2022-11-01T00:25:24.072Z,0
2022-11-01T00:26:40.381Z,0
2022-11-01T00:27:56.663Z,0
2022-11-01T00:29:12.962Z,0
2022-11-01T00:30:29.255Z,0
2022-11-01T00:31:44.554Z,0
2022-11-01T00:33:00.848Z,0
2022-11-01T00:34:17.137Z,0
2022-11-01T00:35:33.430Z,0
2022-11-01T00:36:49.734Z,0
2022-11-01T00:38:06.037Z,0
2022-11-01T00:39:22.311Z,0
2022-11-01T00:40:38.608Z,0
2022-11-01T00:41:54.909Z,0
2022-11-01T00:43:11.189Z,0
2022-11-01T00:44:27.485Z,0
2022-11-01T00:45:43.776Z,0
2022-11-01T00:47:00.071Z,0
2022-11-01T00:48:15.401Z,0
2022-11-01T00:49:31.682Z,0
2022-11-01T00:50:47.970Z,0
2022-11-01T00:52:04.255Z,0
2022-11-01T00:53:20.549Z,0
2022-11-01T00:54:36.847Z,0
2022-11-01T00:55:53.152Z,0
2022-11-01T00:57:09.436Z,0
2022-11-01T00:58:25.724Z,0
2022-11-01T00:59:42.021Z,0
2022-11-01T01:00:58.323Z,0
2022-11-01T01:02:14.608Z,0
2022-11-01T01:03:30.905Z,0
2022-11-01T01:04:46.218Z,0
2022-11-01T01:06:02.499Z,0
2022-11-01T01:07:18.791Z,0
2022-11-01T01:08:35.099Z,0
2022-11-01T01:09:51.385Z,0
2022-11-01T01:11:07.685Z,0
2022-11-01T01:12:23.965Z,0
2022-11-01T01:13:40.281Z,0
2022-11-01T01:14:56.562Z,0
2022-11-01T01:16:12.871Z,0
2022-11-01T01:17:29.151Z,0
2022-11-01T01:18:45.454Z,0
2022-11-01T01:20:01.735Z,0
2022-11-01T01:21:17.042Z,0
2022-11-01T01:22:33.340Z,0
2022-11-01T01:23:49.620Z,0
2022-11-01T01:25:05.911Z,0
2022-11-01T01:26:22.236Z,0
2022-11-01T01:27:38.500Z,0
2022-11-01T01:28:54.812Z,0
2022-11-01T01:30:11.092Z,0
2022-11-01T01:31:27.388Z,0
2022-11-01T01:32:43.681Z,0
2022-11-01T01:33:59.964Z,0
2022-11-01T01:35:16.274Z,0
2022-11-01T01:36:32.549Z,0
2022-11-01T01:37:47.859Z,0
2022-11-01T01:39:04.155Z,0
2022-11-01T01:40:20.454Z,0
2022-11-01T01:41:36.738Z,0
2022-11-01T01:42:53.037Z,0
2022-11-01T01:44:09.332Z,0
2022-11-01T01:45:25.617Z,0
2022-11-01T01:46:41.929Z,0
2022-11-01T01:47:58.203Z,0
2022-11-01T01:49:14.502Z,0
2022-11-01T01:50:30.802Z,0
2022-11-01T01:51:47.094Z,0
2022-11-01T01:53:03.386Z,0
2022-11-01T01:54:18.716Z,0
2022-11-01T01:55:34.992Z,0
2022-11-01T01:56:51.282Z,0
2022-11-01T01:58:07.583Z,0
2022-11-01T01:59:23.864Z,0
2022-11-01T02:00:40.157Z,0
2022-11-01T02:01:55.479Z,0
2022-11-01T02:03:11.779Z,0
2022-11-01T02:04:28.070Z,0
2022-11-01T02:05:44.365Z,0
2022-11-01T02:07:00.653Z,0
2022-11-01T02:08:16.940Z,0
2022-11-01T02:09:33.244Z,0
2022-11-01T02:10:49.533Z,0
2022-11-01T02:12:05.832Z,0
2022-11-01T02:13:22.112Z,0
2022-11-01T02:14:38.406Z,0
2022-11-01T02:15:54.709Z,0
2022-11-01T02:17:11.015Z,0
2022-11-01T02:18:26.305Z,0
2022-11-01T02:19:42.616Z,0
2022-11-01T02:20:58.888Z,0
2022-11-01T02:22:15.193Z,0
2022-11-01T02:23:31.482Z,0
2022-11-01T02:24:47.780Z,0
2022-11-01T02:26:04.068Z,0
2022-11-01T02:27:20.358Z,0
2022-11-01T02:28:36.654Z,0
2022-11-01T02:29:52.974Z,0
2022-11-01T02:31:09.247Z,0
2022-11-01T02:32:25.551Z,0
2022-11-01T02:33:41.827Z,0
2022-11-01T02:34:57.152Z,0
2022-11-01T02:36:13.444Z,0
2022-11-01T02:37:29.720Z,0
2022-11-01T02:38:46.022Z,0
2022-11-01T02:40:02.313Z,0
2022-11-01T02:41:18.611Z,0
2022-11-01T02:42:34.916Z,0
2022-11-01T02:43:51.193Z,0
2022-11-01T02:45:07.512Z,0
2022-11-01T02:46:23.773Z,0
2022-11-01T02:47:40.069Z,0
2022-11-01T02:48:56.373Z,0
2022-11-01T02:50:12.667Z,0
2022-11-01T02:51:27.969Z,0
2022-11-01T02:52:44.260Z,0
2022-11-01T02:54:00.548Z,0
2022-11-01T02:55:16.867Z,0
2022-11-01T02:56:33.134Z,0
2022-11-01T02:57:49.436Z,0
2022-11-01T02:59:05.731Z,0
2022-11-01T03:00:22.014Z,0
2022-11-01T03:01:38.320Z,0
2022-11-01T03:02:54.603Z,0
2022-11-01T03:04:10.894Z,0
2022-11-01T03:05:27.208Z,0
2022-11-01T03:06:43.461Z,0
2022-11-01T03:07:58.789Z,0
2022-11-01T03:09:15.079Z,0
2022-11-01T03:10:31.406Z,0
2022-11-01T03:11:47.663Z,0
2022-11-01T03:13:03.988Z,0
2022-11-01T03:14:20.242Z,0
2022-11-01T03:15:36.549Z,0
2022-11-01T03:16:52.826Z,0
2022-11-01T03:18:09.125Z,0
2022-11-01T03:19:25.410Z,0
2022-11-01T03:20:41.708Z,0
2022-11-01T03:21:58.009Z,0
2022-11-01T03:23:14.342Z,0
2022-11-01T03:24:29.606Z,0
2022-11-01T03:25:45.933Z,0
2022-11-01T03:27:02.190Z,0
2022-11-01T03:28:18.494Z,0
2022-11-01T03:29:34.787Z,0
2022-11-01T03:30:51.073Z,0
2022-11-01T03:32:07.363Z,0
2022-11-01T03:33:23.709Z,0
2022-11-01T03:34:39.960Z,0
2022-11-01T03:35:56.284Z,0
2022-11-01T03:37:12.543Z,0
2022-11-01T03:38:28.843Z,0
2022-11-01T03:39:45.125Z,0
2022-11-01T03:41:00.443Z,0
2022-11-01T03:42:16.732Z,0
2022-11-01T03:43:33.065Z,0
2022-11-01T03:44:49.319Z,0
2022-11-01T03:46:05.616Z,0
2022-11-01T03:47:21.902Z,0
2022-11-01T03:48:38.195Z,0
2022-11-01T03:49:54.505Z,0
2022-11-01T03:51:10.780Z,0
2022-11-01T03:52:27.083Z,0
2022-11-01T03:53:43.375Z,0
2022-11-01T03:54:59.000Z,0
2022-11-01T03:56:15.997Z,0
2022-11-01T03:57:31.273Z,0
2022-11-01T03:58:47.602Z,0
2022-11-01T04:00:03.857Z,0
2022-11-01T04:01:20.142Z,0
2022-11-01T04:02:36.450Z,0
2022-11-01T04:03:52.747Z,0
2022-11-01T04:05:09.036Z,0
2022-11-01T04:06:25.329Z,0
2022-11-01T04:07:41.619Z,0
2022-11-01T04:08:57.920Z,0
2022-11-01T04:10:14.208Z,0
2022-11-01T04:11:30.536Z,0
2022-11-01T04:12:46.786Z,0
2022-11-01T04:14:02.092Z,0
2022-11-01T04:15:18.401Z,0
2022-11-01T04:16:34.687Z,0
2022-11-01T04:17:50.982Z,0
2022-11-01T04:19:07.286Z,0
2022-11-01T04:20:23.561Z,0
2022-11-01T04:21:39.892Z,0
2022-11-01T04:22:56.148Z,0
2022-11-01T04:24:12.481Z,0
2022-11-01T04:25:28.746Z,0
2022-11-01T04:26:45.033Z,0
2022-11-01T04:28:01.332Z,0
2022-11-01T04:29:17.612Z,0
2022-11-01T04:30:32.931Z,0
2022-11-01T04:31:49.230Z,0
2022-11-01T04:33:05.517Z,0
2022-11-01T04:34:21.816Z,0
2022-11-01T04:35:38.110Z,0
2022-11-01T04:36:54.440Z,0
2022-11-01T04:38:10.683Z,0
2022-11-01T04:39:27.020Z,0
2022-11-01T04:40:43.270Z,0
2022-11-01T04:41:59.606Z,0
2022-11-01T04:43:15.858Z,0
2022-11-01T04:44:32.162Z,0
2022-11-01T04:45:48.440Z,0
2022-11-01T04:47:03.792Z,0
2022-11-01T04:48:20.042Z,0
2022-11-01T04:49:36.374Z,0
2022-11-01T04:50:52.643Z,0
2022-11-01T04:52:08.921Z,0
2022-11-01T04:53:25.218Z,0
2022-11-01T04:54:41.516Z,0
2022-11-01T04:55:57.817Z,0
2022-11-01T04:57:14.093Z,0
2022-11-01T04:58:30.406Z,0
2022-11-01T04:59:46.729Z,0
2022-11-01T05:01:02.991Z,0
2022-11-01T05:02:19.267Z,0
2022-11-01T05:03:34.596Z,0
2022-11-01T05:04:50.879Z,0
2022-11-01T05:06:07.177Z,0
2022-11-01T05:07:23.506Z,0
2022-11-01T05:08:39.755Z,0
2022-11-01T05:09:56.061Z,0
2022-11-01T05:11:12.347Z,0
2022-11-01T05:12:28.629Z,0
2022-11-01T05:13:44.938Z,0
2022-11-01T05:15:01.229Z,0
2022-11-01T05:16:17.509Z,0
2022-11-01T05:17:33.809Z,0
2022-11-01T05:18:50.103Z,0
2022-11-01T05:20:05.412Z,0
2022-11-01T05:21:21.712Z,0
2022-11-01T05:22:38.001Z,0
2022-11-01T05:23:54.285Z,0
2022-11-01T05:25:10.583Z,0
2022-11-01T05:26:26.000Z,0
2022-11-01T05:27:43.202Z,0
2022-11-01T05:28:59.473Z,0
2022-11-01T05:30:15.765Z,0
2022-11-01T05:31:32.045Z,0
2022-11-01T05:32:48.339Z,0
2022-11-01T05:34:04.645Z,0
2022-11-01T05:35:20.938Z,0
2022-11-01T05:36:36.243Z,0
2022-11-01T05:37:52.475Z,1
2022-11-01T05:39:08.771Z,0
2022-11-01T05:40:25.015Z,1
2022-11-01T05:41:41.250Z,1
2022-11-01T05:42:57.547Z,0
2022-11-01T05:44:13.844Z,0
2022-11-01T05:45:30.174Z,0
2022-11-01T05:46:46.387Z,3
2022-11-01T05:48:02.634Z,3
2022-11-01T05:49:18.855Z,5
2022-11-01T05:50:35.156Z,1
2022-11-01T05:51:51.345Z,1
2022-11-01T05:53:06.609Z,4
2022-11-01T05:54:22.841Z,3
2022-11-01T05:55:39.078Z,4
2022-11-01T05:56:55.330Z,4
2022-11-01T05:58:11.556Z,6
2022-11-01T05:59:27.812Z,2
2022-11-01T06:00:44.032Z,4
2022-11-01T06:02:00.273Z,4
2022-11-01T06:03:16.554Z,6
2022-11-01T06:04:32.756Z,6
2022-11-01T06:05:49.040Z,8
2022-11-01T06:07:05.242Z,9
2022-11-01T06:08:21.511Z,13
2022-11-01T06:09:36.721Z,14
2022-11-01T06:10:52.974Z,11
2022-11-01T06:12:09.000Z,11
2022-11-01T06:13:25.455Z,13
2022-11-01T06:14:41.679Z,21
2022-11-01T06:15:57.957Z,16
2022-11-01T06:17:13.173Z,21
2022-11-01T06:18:29.426Z,26
2022-11-01T06:19:45.663Z,26
2022-11-01T06:21:01.935Z,22
2022-11-01T06:22:18.144Z,24
2022-11-01T06:23:34.425Z,27
2022-11-01T06:24:50.624Z,27
2022-11-01T06:26:06.847Z,30
2022-11-01T06:27:23.093Z,29
2022-11-01T06:28:39.331Z,29
2022-11-01T06:29:55.577Z,34
2022-11-01T06:31:11.849Z,35
2022-11-01T06:32:28.049Z,42
2022-11-01T06:33:43.293Z,42
2022-11-01T06:34:59.533Z,42
2022-11-01T06:36:15.772Z,45
2022-11-01T06:37:32.017Z,46
2022-11-01T06:38:48.252Z,49
2022-11-01T06:40:04.501Z,46
2022-11-01T06:41:20.767Z,51
2022-11-01T06:42:36.967Z,51
2022-11-01T06:43:53.246Z,57
2022-11-01T06:45:09.445Z,56
2022-11-01T06:46:25.686Z,62
2022-11-01T06:47:41.939Z,61
2022-11-01T06:48:58.170Z,62
2022-11-01T06:50:13.427Z,69
2022-11-01T06:51:29.658Z,72
2022-11-01T06:52:45.893Z,76
2022-11-01T06:54:02.179Z,81
2022-11-01T06:55:18.373Z,85
2022-11-01T06:56:34.660Z,90
2022-11-01T06:57:50.848Z,96
2022-11-01T06:59:07.137Z,100
2022-11-01T07:00:23.346Z,110
2022-11-01T07:01:39.565Z,118
2022-11-01T07:02:55.812Z,123
2022-11-01T07:04:12.063Z,132
2022-11-01T07:05:28.300Z,141
2022-11-01T07:06:43.586Z,155
2022-11-01T07:07:59.787Z,165
2022-11-01T07:09:16.019Z,176
2022-11-01T07:10:32.260Z,186
2022-11-01T07:11:48.534Z,196
2022-11-01T07:13:04.742Z,209
2022-11-01T07:14:20.987Z,219
2022-11-01T07:15:37.216Z,228
2022-11-01T07:16:53.463Z,240
2022-11-01T07:18:09.687Z,248
2022-11-01T07:19:25.931Z,258
2022-11-01T07:20:42.182Z,274
2022-11-01T07:21:58.417Z,279
2022-11-01T07:23:13.658Z,280
2022-11-01T07:24:29.941Z,271
2022-11-01T07:25:46.146Z,305
2022-11-01T07:28:18.623Z,335
2022-11-01T07:29:34.865Z,273
2022-11-01T07:30:51.091Z,419
2022-11-01T07:32:07.378Z,368
2022-11-01T07:33:23.580Z,359
2022-11-01T07:34:39.861Z,354
2022-11-01T07:37:12.337Z,410
2022-11-01T07:38:28.523Z,416
2022-11-01T07:39:43.782Z,401
2022-11-01T07:41:00.030Z,430
2022-11-01T07:42:16.261Z,419
2022-11-01T07:43:32.504Z,345
2022-11-01T07:44:48.781Z,422
2022-11-01T07:46:04.980Z,510
2022-11-01T07:47:21.228Z,265
2022-11-01T07:48:37.457Z,530
2022-11-01T07:49:53.735Z,368
2022-11-01T07:51:09.938Z,365
2022-11-01T07:52:26.207Z,346
2022-11-01T07:53:42.421Z,323
2022-11-01T07:54:58.651Z,314
2022-11-01T07:56:13.910Z,310
2022-11-01T07:57:30.141Z,313
2022-11-01T07:58:46.382Z,329
2022-11-01T08:00:02.656Z,328
2022-11-01T08:01:18.867Z,329
2022-11-01T08:02:35.096Z,328
2022-11-01T08:03:51.334Z,321
2022-11-01T08:05:07.571Z,328
2022-11-01T08:06:23.807Z,353
2022-11-01T08:07:40.065Z,387
2022-11-01T08:08:56.291Z,428
2022-11-01T08:10:12.530Z,465
2022-11-01T08:11:28.769Z,479
2022-11-01T08:12:44.062Z,458
2022-11-01T08:14:00.265Z,554
2022-11-01T08:15:16.505Z,474
2022-11-01T08:16:32.743Z,463
2022-11-01T08:17:48.979Z,457
2022-11-01T08:19:05.211Z,493
2022-11-01T08:20:21.465Z,520
2022-11-01T08:21:37.703Z,488
2022-11-01T08:22:53.934Z,440
2022-11-01T08:24:10.163Z,406
2022-11-01T08:25:26.419Z,398
2022-11-01T08:26:42.658Z,392
2022-11-01T08:27:58.923Z,388
2022-11-01T08:29:14.149Z,384
2022-11-01T08:30:30.391Z,375
2022-11-01T08:31:46.614Z,360
2022-11-01T08:33:02.853Z,338
2022-11-01T08:34:19.102Z,318
2022-11-01T08:35:35.383Z,310
2022-11-01T08:36:51.568Z,290
2022-11-01T08:38:07.856Z,273
2022-11-01T08:39:24.055Z,258
2022-11-01T08:40:40.286Z,250
2022-11-01T08:41:56.540Z,238
2022-11-01T08:43:12.803Z,229
2022-11-01T08:44:29.006Z,227
2022-11-01T08:45:44.263Z,236
2022-11-01T08:47:00.501Z,252
2022-11-01T08:48:16.778Z,272
2022-11-01T08:49:32.979Z,293
2022-11-01T08:50:49.211Z,321
2022-11-01T08:52:05.451Z,352
2022-11-01T08:53:21.738Z,395
2022-11-01T08:54:37.941Z,435
2022-11-01T08:55:54.220Z,467
2022-11-01T08:57:10.413Z,513
2022-11-01T08:58:26.646Z,557
2022-11-01T08:59:42.897Z,566
2022-11-01T09:00:59.116Z,554
2022-11-01T09:02:14.385Z,585
2022-11-01T09:03:30.612Z,617
2022-11-01T09:04:46.850Z,601
2022-11-01T09:06:03.087Z,625
2022-11-01T09:07:19.339Z,666
2022-11-01T09:08:35.583Z,705
2022-11-01T09:09:51.807Z,717
2022-11-01T09:11:08.089Z,695
2022-11-01T09:12:24.292Z,685
2022-11-01T09:13:40.521Z,728
2022-11-01T09:14:56.767Z,743
2022-11-01T09:16:13.044Z,705
2022-11-01T09:17:29.254Z,337
2022-11-01T09:18:44.504Z,930
2022-11-01T09:20:00.730Z,829
2022-11-01T09:21:17.018Z,942
2022-11-01T09:22:33.207Z,788
2022-11-01T09:23:49.491Z,1018
2022-11-01T09:25:05.694Z,1134
2022-11-01T09:26:21.967Z,1547
2022-11-01T09:27:38.182Z,1408
2022-11-01T09:28:54.446Z,1052
2022-11-01T09:30:10.648Z,783
2022-11-01T09:31:26.928Z,804
2022-11-01T09:32:43.162Z,757
2022-11-01T09:33:59.357Z,804
2022-11-01T09:35:14.622Z,824
2022-11-01T09:36:30.862Z,965
2022-11-01T09:37:47.096Z,856
2022-11-01T09:39:03.341Z,966
2022-11-01T09:40:19.587Z,705
2022-11-01T09:41:35.866Z,1480
2022-11-01T09:42:52.047Z,633
2022-11-01T09:44:08.289Z,2865
2022-11-01T09:45:24.524Z,1610
2022-11-01T09:46:40.762Z,1165
2022-11-01T09:47:57.010Z,1260
2022-11-01T09:49:13.243Z,570
2022-11-01T09:50:29.498Z,1459
2022-11-01T09:51:44.734Z,1427
2022-11-01T09:53:00.987Z,2266
2022-11-01T09:54:17.217Z,1906
2022-11-01T09:55:33.467Z,1956
2022-11-01T09:56:49.743Z,2638
2022-11-01T09:58:05.943Z,1544
2022-11-01T09:59:22.178Z,2208
2022-11-01T10:00:38.422Z,2030
2022-11-01T10:01:54.652Z,1412
2022-11-01T10:03:10.885Z,1886
2022-11-01T10:04:27.180Z,1225
2022-11-01T10:05:43.367Z,937
2022-11-01T10:06:59.615Z,832
2022-11-01T10:08:14.858Z,802
2022-11-01T10:09:31.105Z,881
2022-11-01T10:10:47.340Z,824
2022-11-01T10:12:03.619Z,653
2022-11-01T10:13:19.816Z,439
2022-11-01T10:14:36.064Z,356
2022-11-01T10:15:52.294Z,283
2022-11-01T10:17:08.539Z,248
2022-11-01T10:18:24.827Z,318
2022-11-01T10:19:41.028Z,352
2022-11-01T10:20:57.257Z,519
2022-11-01T10:22:13.493Z,629
2022-11-01T10:23:29.744Z,809
2022-11-01T10:24:45.028Z,617
2022-11-01T10:26:01.228Z,1016
2022-11-01T10:27:17.469Z,1790
2022-11-01T10:28:33.703Z,1342
2022-11-01T10:29:49.995Z,2931
2022-11-01T10:31:06.225Z,2170
2022-11-01T10:32:21.456Z,975
2022-11-01T10:33:37.678Z,2116
2022-11-01T10:34:53.921Z,3157
2022-11-01T10:36:10.169Z,3508
2022-11-01T10:37:26.449Z,3326
2022-11-01T10:38:42.648Z,2252
2022-11-01T10:39:58.923Z,1589
2022-11-01T10:41:15.119Z,1464
2022-11-01T10:42:31.411Z,1333
2022-11-01T10:43:47.594Z,1180
2022-11-01T10:45:03.887Z,1043
2022-11-01T10:46:20.072Z,993
2022-11-01T10:47:36.355Z,998
2022-11-01T10:48:52.549Z,1068
2022-11-01T10:50:07.812Z,1156
2022-11-01T10:51:24.046Z,1152
2022-11-01T10:52:40.335Z,1186
2022-11-01T10:53:56.535Z,1253
2022-11-01T10:55:12.805Z,1183
2022-11-01T10:56:29.008Z,1010
2022-11-01T10:57:45.256Z,772
2022-11-01T10:59:01.497Z,4193
2022-11-01T11:00:17.746Z,1509
2022-11-01T11:01:33.964Z,1751
2022-11-01T11:02:50.224Z,2530
2022-11-01T11:04:06.442Z,1511
2022-11-01T11:05:22.695Z,1194
2022-11-01T11:06:37.939Z,1133
2022-11-01T11:07:54.179Z,1086
2022-11-01T11:09:10.419Z,1164
2022-11-01T11:10:26.652Z,1128
2022-11-01T11:11:42.901Z,1110
2022-11-01T11:12:59.129Z,917
2022-11-01T11:14:15.374Z,1019
2022-11-01T11:15:31.616Z,1112
2022-11-01T11:16:47.856Z,1464
2022-11-01T11:18:04.101Z,1238
2022-11-01T11:19:20.348Z,1133
2022-11-01T11:20:36.583Z,1302
2022-11-01T11:21:52.823Z,1127
2022-11-01T11:23:08.090Z,1047
2022-11-01T11:24:24.305Z,1084
2022-11-01T11:25:40.559Z,1192
2022-11-01T11:26:56.793Z,1219
2022-11-01T11:28:13.047Z,1434
2022-11-01T11:29:29.254Z,1403
2022-11-01T11:30:45.517Z,1723
2022-11-01T11:32:01.748Z,1849
2022-11-01T11:33:17.972Z,1551
2022-11-01T11:34:34.214Z,1228
2022-11-01T11:35:50.450Z,1071
2022-11-01T11:37:06.693Z,953
2022-11-01T11:38:22.933Z,862
2022-11-01T11:39:38.215Z,812
2022-11-01T11:40:54.422Z,781
2022-11-01T11:42:10.683Z,755
2022-11-01T11:43:26.915Z,755
2022-11-01T11:44:43.152Z,752
2022-11-01T11:45:59.379Z,743
2022-11-01T11:47:15.628Z,749
2022-11-01T11:48:31.883Z,720
2022-11-01T11:49:48.106Z,833
2022-11-01T11:51:04.368Z,860
2022-11-01T11:52:20.576Z,925
2022-11-01T11:53:36.817Z,935
2022-11-01T11:54:53.058Z,916
2022-11-01T11:56:08.320Z,911
2022-11-01T11:57:24.565Z,902
2022-11-01T11:58:40.789Z,880
2022-11-01T11:59:57.040Z,864
2022-11-01T12:01:13.302Z,928
2022-11-01T12:02:29.515Z,931
2022-11-01T12:03:45.781Z,885
2022-11-01T12:05:02.018Z,1212
2022-11-01T12:06:18.234Z,1697
2022-11-01T12:07:34.478Z,1535
2022-11-01T12:08:50.720Z,610
2022-11-01T12:10:06.954Z,1300
2022-11-01T12:11:23.190Z,1628
2022-11-01T12:12:38.466Z,1875
2022-11-01T12:13:54.681Z,1857
2022-11-01T12:15:10.957Z,1582
2022-11-01T12:16:27.174Z,1190
2022-11-01T12:17:43.426Z,1239
2022-11-01T12:18:59.648Z,1483
2022-11-01T12:20:15.885Z,1509
2022-11-01T12:21:32.115Z,1567
2022-11-01T12:22:48.365Z,1289
2022-11-01T12:24:04.609Z,965
2022-11-01T12:25:20.843Z,1163
2022-11-01T12:26:37.078Z,1335
2022-11-01T12:27:53.334Z,1409
2022-11-01T12:29:08.578Z,1503
2022-11-01T12:30:24.808Z,1567
2022-11-01T12:31:41.077Z,1326
2022-11-01T12:38:02.241Z,1359
2022-11-01T12:39:17.505Z,1428
2022-11-01T12:40:32.771Z,1300
2022-11-01T12:41:48.037Z,1075
2022-11-01T12:43:03.272Z,856
2022-11-01T12:44:18.565Z,793
2022-11-01T12:45:33.802Z,747
2022-11-01T12:46:49.051Z,703
2022-11-01T12:48:04.322Z,666
2022-11-01T12:49:20.555Z,661
2022-11-01T12:50:36.801Z,670
2022-11-01T12:51:53.057Z,653
2022-11-01T12:53:09.271Z,716
2022-11-01T12:54:25.524Z,792
2022-11-01T12:55:41.751Z,874
2022-11-01T12:56:57.990Z,861
2022-11-01T12:58:14.239Z,948
2022-11-01T12:59:30.459Z,894
2022-11-01T13:00:45.738Z,943
2022-11-01T13:02:00.985Z,1064
2022-11-01T13:03:17.217Z,1081
2022-11-01T13:04:33.452Z,994
2022-11-01T13:05:49.703Z,994
2022-11-01T13:07:05.931Z,1050
2022-11-01T13:08:22.180Z,534
2022-11-01T13:09:38.448Z,769
2022-11-01T13:10:54.666Z,1542
2022-11-01T13:12:10.905Z,1866
2022-11-01T13:13:27.137Z,2403
2022-11-01T13:14:43.368Z,3956
2022-11-01T13:15:59.620Z,845
2022-11-01T13:21:04.579Z,2660
2022-11-01T13:22:19.833Z,4889
2022-11-01T13:23:35.084Z,1219
2022-11-01T13:24:51.352Z,2696
2022-11-01T13:26:07.564Z,4887
2022-11-01T13:27:23.832Z,2009
2022-11-01T13:28:40.039Z,3500
2022-11-01T13:29:56.277Z,1720
2022-11-01T13:31:12.517Z,2347
2022-11-01T13:32:28.757Z,1693
2022-11-01T13:33:44.995Z,841
2022-11-01T13:35:01.232Z,668
2022-11-01T13:36:16.531Z,396
2022-11-01T13:37:31.754Z,593
2022-11-01T13:38:47.989Z,1022
2022-11-01T13:40:04.254Z,4017
2022-11-01T13:41:20.470Z,515
2022-11-01T13:42:36.720Z,1950
2022-11-01T13:43:52.953Z,606
2022-11-01T13:45:09.192Z,1169
2022-11-01T13:46:25.435Z,1647
2022-11-01T13:47:41.681Z,5963
2022-11-01T13:48:57.918Z,4428
2022-11-01T13:50:14.152Z,1753
2022-11-01T13:51:30.397Z,1298
2022-11-01T13:52:46.653Z,530
2022-11-01T13:54:01.884Z,686
2022-11-01T13:55:18.149Z,2799
2022-11-01T13:56:34.372Z,1029
2022-11-01T13:57:50.626Z,1654
2022-11-01T13:59:06.842Z,348
2022-11-01T14:00:23.101Z,1525
2022-11-01T14:01:39.319Z,544
2022-11-01T14:02:54.585Z,344
2022-11-01T14:04:09.862Z,302
2022-11-01T14:05:26.075Z,393
2022-11-01T14:06:41.363Z,241
2022-11-01T14:07:56.620Z,223
2022-11-01T14:09:12.840Z,168
2022-11-01T14:10:29.060Z,204
2022-11-01T14:11:45.317Z,300
2022-11-01T14:13:01.547Z,312
2022-11-01T14:14:17.810Z,314
2022-11-01T14:15:34.022Z,268
2022-11-01T14:16:50.276Z,349
2022-11-01T14:18:06.500Z,387
2022-11-01T14:19:22.769Z,385
2022-11-01T14:20:39.002Z,343
2022-11-01T14:21:55.227Z,374
2022-11-01T14:23:11.460Z,371
2022-11-01T14:24:26.724Z,451
2022-11-01T14:25:42.950Z,451
2022-11-01T14:26:59.215Z,426
2022-11-01T14:28:15.432Z,441
2022-11-01T14:29:31.676Z,568
2022-11-01T14:30:47.937Z,436
2022-11-01T14:32:04.152Z,456
2022-11-01T14:33:19.445Z,389
2022-11-01T14:34:34.692Z,679
2022-11-01T14:35:50.914Z,2358
2022-11-01T14:37:07.144Z,1264
2022-11-01T14:38:22.411Z,1111
2022-11-01T14:39:37.663Z,1345
2022-11-01T14:40:53.899Z,1357
2022-11-01T14:42:10.136Z,1138
2022-11-01T14:43:26.401Z,1039
2022-11-01T14:44:42.625Z,1032
2022-11-01T14:45:58.857Z,928
2022-11-01T14:47:14.120Z,757
2022-11-01T14:48:30.351Z,493
2022-11-01T14:49:46.631Z,601
2022-11-01T14:51:02.839Z,632
2022-11-01T14:52:19.078Z,731
2022-11-01T14:53:35.313Z,585
2022-11-01T14:54:51.562Z,525
2022-11-01T14:56:07.790Z,398
2022-11-01T14:57:24.031Z,444
2022-11-01T14:58:40.275Z,750
2022-11-01T14:59:56.525Z,743
2022-11-01T15:01:12.756Z,586
2022-11-01T15:02:28.991Z,465
2022-11-01T15:03:44.285Z,430
2022-11-01T15:04:59.535Z,984
2022-11-01T15:06:14.764Z,932
2022-11-01T15:07:30.035Z,580
2022-11-01T15:08:45.295Z,522
2022-11-01T15:10:01.523Z,479
2022-11-01T15:11:17.793Z,416
2022-11-01T15:12:34.003Z,377
2022-11-01T15:13:50.239Z,344
2022-11-01T15:15:06.489Z,317
2022-11-01T15:16:22.728Z,292
2022-11-01T15:17:37.986Z,273
2022-11-01T15:18:53.237Z,263
2022-11-01T15:20:09.493Z,249
2022-11-01T15:21:25.747Z,237
2022-11-01T15:22:41.973Z,223
2022-11-01T15:23:58.228Z,207
2022-11-01T15:25:14.448Z,193
2022-11-01T15:26:30.710Z,176
2022-11-01T15:27:46.925Z,169
2022-11-01T15:29:03.169Z,159
2022-11-01T15:30:19.401Z,133
2022-11-01T15:31:35.647Z,120
2022-11-01T15:32:51.878Z,115
2022-11-01T15:34:08.139Z,106
2022-11-01T15:35:23.380Z,95
2022-11-01T15:36:39.642Z,89
2022-11-01T15:37:55.854Z,82
2022-11-01T15:39:12.124Z,78
2022-11-01T15:40:28.330Z,64
2022-11-01T15:41:44.582Z,62
2022-11-01T15:43:00.809Z,57
2022-11-01T15:44:16.076Z,51
2022-11-01T15:45:31.333Z,44
2022-11-01T15:46:46.583Z,34
2022-11-01T15:48:01.843Z,28
2022-11-01T15:49:17.099Z,21
2022-11-01T15:50:32.353Z,17
2022-11-01T15:51:47.629Z,16
2022-11-01T15:53:02.873Z,15
2022-11-01T15:54:19.107Z,14
2022-11-01T15:55:35.364Z,12
2022-11-01T15:56:51.598Z,10
2022-11-01T15:58:07.837Z,10
2022-11-01T15:59:24.099Z,8
2022-11-01T16:00:40.314Z,8
2022-11-01T16:01:56.556Z,6
2022-11-01T16:03:12.784Z,5
2022-11-01T16:04:29.054Z,4
2022-11-01T16:05:45.262Z,5
2022-11-01T16:07:01.499Z,3
2022-11-01T16:08:17.752Z,3
2022-11-01T16:09:33.006Z,6
2022-11-01T16:10:49.253Z,1
2022-11-01T16:12:05.503Z,2
2022-11-01T16:13:21.720Z,2
2022-11-01T16:14:37.982Z,1
2022-11-01T16:15:54.210Z,1
2022-11-01T16:17:10.462Z,1
2022-11-01T16:18:25.767Z,0
2022-11-01T16:19:41.091Z,0
2022-11-01T16:20:57.356Z,0
2022-11-01T16:22:13.591Z,1
2022-11-01T16:23:29.896Z,0
2022-11-01T16:24:46.182Z,0
2022-11-01T16:26:02.469Z,0
2022-11-01T16:27:18.766Z,0
2022-11-01T16:28:35.067Z,0
2022-11-01T16:29:51.382Z,0
2022-11-01T16:31:07.652Z,0
2022-11-01T16:32:23.969Z,0
2022-11-01T16:33:40.235Z,0
2022-11-01T16:34:56.518Z,0
2022-11-01T16:36:11.834Z,0
2022-11-01T16:37:28.150Z,0
2022-11-01T16:38:44.432Z,0
2022-11-01T16:40:00.739Z,0
2022-11-01T16:41:17.012Z,0
2022-11-01T16:42:33.302Z,0
2022-11-01T16:43:49.597Z,0
2022-11-01T16:45:04.000Z,0
2022-11-01T16:46:20.220Z,0
2022-11-01T16:47:35.561Z,0
2022-11-01T16:48:50.840Z,0
